Time;durP1;ratioP1;P1;durP2;ratioP2;P2;SDS_P1;SDS_P2;PMS_P1;PMS_P2;Temp;Humidity;BMP_temperature;BMP_pressure;BME280_temperature;BME280_humidity;BME280_pressure;Samples;Min_cycle;Max_cycle;Signal;HPM_P1;HPM_P2
2023/09/16 00:01:08;;;;;;;0.00;0.00;;;;;;;18.60;100.00;101437.41;10443817;28;20045;-78
2023/09/16 00:06:12;;;;;;;0.15;0.15;;;;;;;18.35;100.00;101426.94;10446555;28;20043;-78
2023/09/16 00:11:14;;;;;;;0.20;0.10;;;;;;;18.49;100.00;101433.91;10448477;28;20123;-78
2023/09/16 00:16:15;;;;;;;0.00;0.00;;;;;;;18.37;100.00;101433.00;10432474;28;20043;-78
2023/09/16 00:21:17;;;;;;;0.00;0.00;;;;;;;18.35;100.00;101432.16;10447562;28;20089;-78
2023/09/16 00:26:19;;;;;;;0.00;0.00;;;;;;;18.21;100.00;101431.22;10448862;28;20033;-78
2023/09/16 00:31:22;;;;;;;0.80;0.32;;;;;;;17.71;100.00;101423.22;10431084;28;20041;-78
2023/09/16 00:36:24;;;;;;;0.00;0.00;;;;;;;18.41;100.00;101422.59;10448731;28;20077;-78
2023/09/16 00:41:25;;;;;;;0.00;0.00;;;;;;;18.49;100.00;101423.47;10446957;28;20086;-78
2023/09/16 00:46:27;;;;;;;0.00;0.00;;;;;;;18.46;100.00;101424.34;10427031;28;20059;-78
2023/09/16 00:51:30;;;;;;;0.00;0.00;;;;;;;18.62;100.00;101414.78;10447520;28;20191;-78
2023/09/16 00:56:33;;;;;;;0.10;0.10;;;;;;;18.42;100.00;101411.28;10427469;28;20045;-78
2023/09/16 01:01:37;;;;;;;0.55;0.20;;;;;;;18.43;100.00;101410.44;10429507;28;20389;-78
2023/09/16 01:06:40;;;;;;;0.00;0.00;;;;;;;18.41;100.00;101405.19;10445870;28;20381;-78
2023/09/16 01:11:41;;;;;;;0.10;0.10;;;;;;;18.05;100.00;101406.84;10446416;28;20515;-78
2023/09/16 01:16:52;;;;;;;0.00;0.00;;;;;;;18.37;100.00;101406.91;10429418;28;20059;-78
2023/09/16 01:21:54;;;;;;;0.00;0.00;;;;;;;18.42;100.00;101406.06;10429042;28;20051;-78
2023/09/16 01:26:56;;;;;;;0.00;0.00;;;;;;;18.44;100.00;101404.31;10446096;28;20101;-78
2023/09/16 01:32:04;;;;;;;0.00;0.00;;;;;;;18.31;100.00;101406.91;10446849;28;20132;-79
2023/09/16 01:37:11;;;;;;;1.77;1.00;;;;;;;18.66;100.00;101406.06;10439470;28;20055;-78
2023/09/16 01:42:15;;;;;;;0.10;0.10;;;;;;;18.76;100.00;101400.88;10444265;28;20589;-78
2023/09/16 01:47:20;;;;;;;0.00;0.00;;;;;;;18.57;100.00;101405.22;10445676;28;20381;-78
2023/09/16 01:52:22;;;;;;;0.00;0.00;;;;;;;18.44;100.00;101394.78;10423877;28;20140;-78
2023/09/16 01:57:24;;;;;;;0.00;0.00;;;;;;;17.93;100.00;101389.41;10448599;28;20428;-78
2023/09/16 02:02:25;;;;;;;0.10;0.10;;;;;;;18.39;100.00;101392.16;10427541;28;20040;-78
2023/09/16 02:07:27;;;;;;;0.00;0.00;;;;;;;18.15;100.00;101379.06;10425465;28;20052;-79
2023/09/16 02:12:29;;;;;;;0.00;0.00;;;;;;;18.02;100.00;101373.81;10444055;28;20044;-78
2023/09/16 02:17:31;;;;;;;0.25;0.10;;;;;;;18.65;100.00;101380.84;10427768;28;20367;-79
2023/09/16 02:22:33;;;;;;;0.20;0.10;;;;;;;18.33;100.00;101386.94;10443893;28;20479;-78
2023/09/16 02:27:35;;;;;;;0.47;0.30;;;;;;;18.88;100.00;101387.78;10444131;28;20049;-79
2023/09/16 02:32:37;;;;;;;0.30;0.10;;;;;;;18.96;100.00;101388.69;10444119;28;20041;-78
2023/09/16 02:37:38;;;;;;;0.00;0.00;;;;;;;18.85;100.00;101385.22;10433481;28;20135;-78
2023/09/16 02:42:40;;;;;;;0.00;0.00;;;;;;;19.25;100.00;101382.53;10435583;28;20564;-78
2023/09/16 02:47:41;;;;;;;0.00;0.00;;;;;;;18.72;100.00;101379.13;10452063;28;20041;-78
2023/09/16 02:52:43;;;;;;;0.10;0.10;;;;;;;18.41;100.00;101368.66;10451263;28;20157;-78
2023/09/16 02:57:45;;;;;;;0.20;0.20;;;;;;;19.08;100.00;101376.50;10451259;28;20569;-79
2023/09/16 03:02:49;;;;;;;0.00;0.00;;;;;;;18.84;100.00;101370.41;10451139;28;20721;-78
2023/09/16 03:07:51;;;;;;;0.43;0.20;;;;;;;19.43;100.00;101365.09;10450574;28;20136;-79
2023/09/16 03:12:53;;;;;;;0.20;0.20;;;;;;;19.17;100.00;101360.81;10451201;28;20040;-79
2023/09/16 03:17:55;;;;;;;0.25;0.10;;;;;;;19.43;100.00;101352.03;10431463;28;20053;-78
2023/09/16 03:23:12;;;;;;;0.10;0.10;;;;;;;19.53;100.00;101356.34;10435369;28;20050;-78
2023/09/16 03:28:14;;;;;;;0.00;0.00;;;;;;;18.90;100.00;101352.13;10450497;28;20067;-79
2023/09/16 03:33:15;;;;;;;0.20;0.13;;;;;;;19.57;100.00;101350.22;10450239;28;20037;-79
2023/09/16 03:38:18;;;;;;;0.00;0.00;;;;;;;18.74;100.00;101351.28;10450091;28;20072;-79
2023/09/16 03:43:20;;;;;;;0.00;0.00;;;;;;;19.19;100.00;101332.94;10449298;28;20049;-79
2023/09/16 03:48:21;;;;;;;0.10;0.10;;;;;;;18.98;100.00;101326.91;10433266;28;20135;-79
2023/09/16 03:53:25;;;;;;;0.03;0.03;;;;;;;19.20;100.00;101316.41;10450396;28;20467;-78
2023/09/16 03:58:41;;;;;;;0.65;0.20;;;;;;;19.54;100.00;101326.72;10430813;28;20095;-79
2023/09/16 04:03:43;;;;;;;0.08;0.08;;;;;;;19.07;100.00;101315.56;10432002;28;20048;-79
2023/09/16 04:08:45;;;;;;;0.00;0.00;;;;;;;19.37;100.00;101325.91;10445980;28;20099;-78
2023/09/16 04:13:46;;;;;;;0.03;0.03;;;;;;;19.09;100.00;101320.81;10432552;28;20416;-78
2023/09/16 04:18:48;;;;;;;0.03;0.03;;;;;;;19.28;100.00;101322.47;10448038;28;20081;-79
2023/09/16 04:23:51;;;;;;;0.35;0.17;;;;;;;19.01;100.00;101329.53;10448830;28;20052;-78
2023/09/16 04:28:53;;;;;;;0.80;0.60;;;;;;;18.91;100.00;101332.97;10431632;28;20044;-79
2023/09/16 04:33:55;;;;;;;0.15;0.15;;;;;;;18.26;100.00;101333.03;10448093;28;20048;-79
2023/09/16 04:38:57;;;;;;;0.10;0.10;;;;;;;18.25;100.00;101331.28;10446196;28;20061;-79
2023/09/16 04:43:59;;;;;;;0.00;0.00;;;;;;;18.70;100.00;101339.97;10448250;28;20526;-79
2023/09/16 04:49:01;;;;;;;0.00;0.00;;;;;;;19.13;100.00;101335.56;10430783;28;20103;-79
2023/09/16 04:54:05;;;;;;;0.60;0.28;;;;;;;18.65;100.00;101336.47;10446420;28;20116;-79
2023/09/16 04:59:07;;;;;;;0.52;0.20;;;;;;;18.59;100.00;101336.50;10438264;28;20045;-79
2023/09/16 05:04:09;;;;;;;0.38;0.20;;;;;;;19.16;100.00;101332.97;10444108;28;20061;-79
2023/09/16 05:09:11;;;;;;;0.10;0.10;;;;;;;19.01;100.00;101332.13;10445781;28;20135;-79
2023/09/16 05:14:12;;;;;;;0.10;0.10;;;;;;;18.79;100.00;101327.78;10447477;28;20119;-79
2023/09/16 05:19:14;;;;;;;0.10;0.10;;;;;;;19.52;100.00;101324.97;10446048;28;20389;-78
2023/09/16 05:24:29;;;;;;;0.57;0.40;;;;;;;18.87;100.00;101328.66;10447160;28;20079;-79
2023/09/16 05:29:31;;;;;;;0.10;0.08;;;;;;;18.62;100.00;101320.84;10444604;28;20526;-79
2023/09/16 05:34:33;;;;;;;0.30;0.20;;;;;;;19.46;100.00;101316.28;10445454;28;20086;-79
2023/09/16 05:39:36;;;;;;;0.10;0.10;;;;;;;20.07;100.00;101318.59;10441507;28;20044;-79
2023/09/16 05:44:39;;;;;;;0.05;0.05;;;;;;;20.45;100.00;101322.66;10445809;28;20167;-79
2023/09/16 05:49:41;;;;;;;0.22;0.20;;;;;;;20.27;100.00;101321.06;10444527;28;20048;-79
2023/09/16 05:54:49;;;;;;;0.32;0.20;;;;;;;19.81;100.00;101317.84;10428460;28;20056;-79
2023/09/16 05:59:50;;;;;;;0.00;0.00;;;;;;;20.49;100.00;101332.22;10437867;28;20444;-79
2023/09/16 06:04:53;;;;;;;0.00;0.00;;;;;;;20.38;100.00;101334.06;10441747;28;20045;-79
2023/09/16 06:09:55;;;;;;;0.00;0.00;;;;;;;20.86;100.00;101334.53;10444559;28;20053;-79
2023/09/16 06:14:57;;;;;;;0.10;0.10;;;;;;;21.14;100.00;101342.09;10443650;28;20407;-79
2023/09/16 06:19:59;;;;;;;0.00;0.00;;;;;;;21.33;100.00;101339.28;10423132;28;20072;-79
2023/09/16 06:25:01;;;;;;;0.17;0.17;;;;;;;21.58;100.00;101346.84;10437523;28;20132;-79
2023/09/16 06:30:04;;;;;;;0.00;0.00;;;;;;;21.91;100.00;101357.78;10423586;28;20052;-79
2023/09/16 06:35:06;;;;;;;0.55;0.35;;;;;;;22.18;100.00;101359.13;10432775;28;20492;-79
2023/09/16 06:40:08;;;;;;;0.00;0.00;;;;;;;23.37;100.00;101341.31;10432470;28;20114;-79
2023/09/16 06:45:12;;;;;;;5.57;0.43;;;;;;;23.86;100.00;101347.28;10437065;28;20377;-79
2023/09/16 06:50:14;;;;;;;0.50;0.30;;;;;;;23.89;100.00;101347.22;10443389;28;20049;-78
2023/09/16 06:55:16;;;;;;;0.38;0.38;;;;;;;24.45;100.00;101343.25;10426654;28;20056;-79
2023/09/16 07:00:17;;;;;;;2.25;0.38;;;;;;;24.83;100.00;101343.22;10421221;28;20045;-78
2023/09/16 07:05:19;;;;;;;1.52;0.35;;;;;;;23.84;100.00;101359.59;10445282;28;20425;-79
2023/09/16 07:10:21;;;;;;;0.30;0.20;;;;;;;24.82;100.00;101354.66;10430934;28;20479;-78
2023/09/16 07:15:23;;;;;;;0.88;0.55;;;;;;;25.88;100.00;101345.47;10453985;28;20041;-78
2023/09/16 07:20:24;;;;;;;0.17;0.17;;;;;;;24.73;100.00;101344.38;10455572;28;20049;-78
2023/09/16 07:25:26;;;;;;;0.55;0.17;;;;;;;24.20;100.00;101343.00;10457651;28;21260;-78
2023/09/16 07:30:28;;;;;;;4.68;0.63;;;;;;;25.76;100.00;101328.28;10442774;28;20492;-78
2023/09/16 07:35:29;;;;;;;0.10;0.10;;;;;;;26.13;100.00;101342.97;10449105;28;20457;-77
2023/09/16 07:40:32;;;;;;;1.10;0.28;;;;;;;26.88;100.00;101338.69;10452456;28;20575;-78
2023/09/16 07:45:34;;;;;;;0.30;0.30;;;;;;;27.02;100.00;101345.25;10452721;28;20056;-78
2023/09/16 07:50:36;;;;;;;0.45;0.43;;;;;;;27.57;100.00;101344.16;10453857;28;20634;-78
2023/09/16 07:55:38;;;;;;;1.30;0.57;;;;;;;26.90;100.00;101350.09;10428571;28;20055;-78
2023/09/16 08:00:40;;;;;;;0.60;0.30;;;;;;;26.24;100.00;101362.84;10442123;28;20041;-78
2023/09/16 08:05:43;;;;;;;0.22;0.22;;;;;;;25.59;100.00;101365.69;10443552;28;20045;-77
2023/09/16 08:10:50;;;;;;;1.77;0.30;;;;;;;26.60;100.00;101367.81;10439319;28;20076;-78
2023/09/16 08:15:51;;;;;;;0.47;0.17;;;;;;;26.76;100.00;101376.13;10448381;28;20044;-78
2023/09/16 08:20:55;;;;;;;0.22;0.20;;;;;;;26.96;100.00;101366.63;10437688;28;20125;-77
2023/09/16 08:25:57;;;;;;;1.17;0.40;;;;;;;27.89;100.00;101381.75;10442738;28;20370;-78
2023/09/16 08:30:58;;;;;;;0.20;0.20;;;;;;;27.62;100.00;101379.22;10427341;28;20400;-77
2023/09/16 08:36:00;;;;;;;0.38;0.32;;;;;;;28.18;100.00;101389.38;10442576;28;20381;-76
2023/09/16 08:41:21;;;;;;;1.48;0.65;;;;;;;27.52;100.00;101384.03;10452453;28;20049;-77
2023/09/16 08:46:24;;;;;;;0.47;0.40;;;;;;;27.86;100.00;101390.66;10448475;28;20037;-78
2023/09/16 08:51:27;;;;;;;0.20;0.20;;;;;;;29.10;100.00;101382.94;10452225;28;20534;-77
2023/09/16 08:56:31;;;;;;;0.50;0.47;;;;;;;27.80;100.00;101380.31;10454043;28;20072;-77
2023/09/16 09:01:32;;;;;;;0.32;0.10;;;;;;;28.13;100.00;101386.06;10452880;28;20514;-77
2023/09/16 09:06:35;;;;;;;0.35;0.30;;;;;;;30.12;100.00;101382.72;10449539;28;20044;-77
2023/09/16 09:11:42;;;;;;;0.73;0.45;;;;;;;29.01;100.00;101383.34;10436771;28;20098;-77
2023/09/16 09:16:47;;;;;;;0.38;0.32;;;;;;;29.72;100.00;101385.44;10447259;28;20044;-76
2023/09/16 09:21:51;;;;;;;0.65;0.55;;;;;;;29.99;100.00;101377.97;10452937;28;20083;-77
2023/09/16 09:26:52;;;;;;;0.50;0.40;;;;;;;30.30;100.00;101387.09;10442300;28;20037;-77
2023/09/16 09:31:55;;;;;;;0.82;0.30;;;;;;;30.35;100.00;101395.69;10425725;28;20053;-77
2023/09/16 09:36:56;;;;;;;0.38;0.30;;;;;;;30.00;100.00;101385.00;10450175;28;20045;-77
2023/09/16 09:41:58;;;;;;;0.70;0.43;;;;;;;31.41;100.00;101379.66;10441230;28;20443;-77
2023/09/16 09:47:01;;;;;;;0.10;0.10;;;;;;;31.41;100.00;101379.66;10445575;28;20052;-77
2023/09/16 09:52:04;;;;;;;0.30;0.20;;;;;;;31.44;100.00;101379.50;10434865;28;20087;-77
2023/09/16 09:57:07;;;;;;;0.22;0.15;;;;;;;30.58;100.00;101384.88;10436494;28;20089;-77
2023/09/16 10:02:09;;;;;;;0.05;0.05;;;;;;;31.95;100.00;101396.19;10430637;28;20117;-78
2023/09/16 10:07:32;;;;;;;0.20;0.20;;;;;;;31.77;100.00;101378.56;10442729;28;20040;-78
2023/09/16 10:12:34;;;;;;;0.20;0.00;;;;;;;31.58;100.00;101382.25;10438782;28;20496;-77
2023/09/16 10:17:37;;;;;;;0.30;0.20;;;;;;;31.61;100.00;101381.22;10432046;28;20045;-77
2023/09/16 10:22:39;;;;;;;0.20;0.20;;;;;;;31.17;100.00;101388.03;10441709;28;20514;-78
2023/09/16 10:27:58;;;;;;;0.88;0.30;;;;;;;31.83;100.00;101386.25;10437500;28;20107;-77
2023/09/16 10:33:06;;;;;;;0.10;0.10;;;;;;;32.13;100.00;101382.78;10446192;28;20502;-77
2023/09/16 10:38:11;;;;;;;0.20;0.20;;;;;;;33.05;100.00;101392.47;10440327;28;20724;-78
2023/09/16 10:43:14;;;;;;;0.28;0.10;;;;;;;31.75;100.00;101388.47;10440978;28;20047;-78
2023/09/16 10:48:16;;;;;;;0.10;0.10;;;;;;;32.33;100.00;101384.28;10440497;28;20801;-77
2023/09/16 10:53:19;;;;;;;0.20;0.10;;;;;;;32.54;100.00;101382.16;10444897;28;20048;-77
2023/09/16 10:58:46;;;;;;;0.55;0.32;;;;;;;32.47;100.00;101380.81;10452098;28;20045;-78
2023/09/16 11:03:55;;;;;;;;;;;;;;;32.39;100.00;101372.41;10454587;28;20045;-77
2023/09/16 11:08:57;;;;;;;0.10;0.10;;;;;;;30.89;100.00;101368.19;10448293;28;20047;-78
2023/09/16 11:13:59;;;;;;;0.10;0.10;;;;;;;31.23;100.00;101366.44;10442808;28;20052;-78
2023/09/16 11:19:07;;;;;;;0.10;0.10;;;;;;;32.44;100.00;101375.66;10427647;28;20502;-77
2023/09/16 11:24:11;;;;;;;0.20;0.20;;;;;;;31.06;100.00;101369.94;10453582;28;20491;-79
2023/09/16 11:29:21;;;;;;;0.40;0.20;;;;;;;32.64;100.00;101360.28;10452993;28;20459;-79
2023/09/16 11:34:25;;;;;;;0.30;0.30;;;;;;;31.95;100.00;101364.22;10451916;28;20117;-77
2023/09/16 11:39:40;;;;;;;0.88;0.68;;;;;;;31.98;100.00;101362.34;10454419;28;20052;-76
2023/09/16 11:44:42;;;;;;;0.30;0.30;;;;;;;32.04;100.00;101357.50;10440310;28;20136;-77
2023/09/16 11:49:45;;;;;;;0.50;0.25;;;;;;;32.04;100.00;101351.31;10431132;28;20056;-78
2023/09/16 11:54:47;;;;;;;0.20;0.17;;;;;;;32.15;100.00;101351.53;10458552;28;20041;-76
2023/09/16 11:59:49;;;;;;;0.00;0.00;;;;;;;31.64;100.00;101339.28;10435865;28;20044;-76
2023/09/16 12:04:50;;;;;;;0.20;0.20;;;;;;;32.43;100.00;101339.28;10457767;28;20392;-78
2023/09/16 12:09:53;;;;;;;0.00;0.00;;;;;;;31.52;100.00;101345.31;10456660;28;20073;-75
2023/09/16 12:14:55;;;;;;;0.00;0.00;;;;;;;32.31;100.00;101340.00;10450079;28;20037;-76
2023/09/16 12:19:57;;;;;;;0.00;0.00;;;;;;;31.94;100.00;101333.19;10435545;28;20041;-76
2023/09/16 12:24:59;;;;;;;0.30;0.30;;;;;;;30.97;100.00;101323.41;10455122;28;20040;-77
2023/09/16 12:30:02;;;;;;;0.00;0.00;;;;;;;30.91;100.00;101329.06;10456236;28;20491;-77
2023/09/16 12:35:08;;;;;;;0.50;0.30;;;;;;;32.03;100.00;101321.13;10457684;28;20037;-77
2023/09/16 12:40:11;;;;;;;0.20;0.20;;;;;;;31.04;100.00;101333.72;10439976;28;20073;-77
2023/09/16 12:45:13;;;;;;;0.50;0.50;;;;;;;31.01;100.00;101321.44;10446932;28;20029;-76
2023/09/16 12:50:15;;;;;;;0.10;0.10;;;;;;;31.21;100.00;101315.06;10435530;28;20041;-76
2023/09/16 12:55:16;;;;;;;0.38;0.20;;;;;;;30.64;100.00;101316.28;10457731;28;20043;-76
2023/09/16 13:00:25;;;;;;;0.10;0.10;;;;;;;32.10;100.00;101314.50;10454791;28;20064;-76
2023/09/16 13:05:28;;;;;;;0.17;0.17;;;;;;;31.33;100.00;101305.56;10451132;28;20040;-76
2023/09/16 13:10:29;;;;;;;0.30;0.15;;;;;;;31.77;100.00;101301.34;10451781;28;20064;-76
2023/09/16 13:15:40;;;;;;;0.03;0.03;;;;;;;31.79;100.00;101310.09;10433078;28;20041;-77
2023/09/16 13:20:42;;;;;;;0.45;0.25;;;;;;;31.64;100.00;101298.50;10454394;28;20119;-76
2023/09/16 13:25:44;;;;;;;0.00;0.00;;;;;;;31.92;100.00;101303.09;10439001;28;20396;-76
2023/09/16 13:30:49;;;;;;;0.30;0.10;;;;;;;31.85;100.00;101304.41;10456315;28;20052;-75
2023/09/16 13:35:51;;;;;;;0.00;0.00;;;;;;;30.34;100.00;101308.94;10454757;28;20048;-76
2023/09/16 13:40:53;;;;;;;0.10;0.10;;;;;;;31.11;100.00;101303.19;10453851;28;20052;-76
2023/09/16 13:45:56;;;;;;;0.13;0.00;;;;;;;30.95;100.00;101297.84;10449554;28;20040;-76
2023/09/16 13:50:58;;;;;;;0.03;0.03;;;;;;;31.44;100.00;101300.47;10440848;28;20053;-75
2023/09/16 13:55:59;;;;;;;0.10;0.10;;;;;;;30.37;100.00;101297.28;10441094;28;20389;-75
2023/09/16 14:01:01;;;;;;;0.08;0.08;;;;;;;31.74;100.00;101296.19;10449586;28;20403;-75
2023/09/16 14:06:03;;;;;;;0.20;0.20;;;;;;;30.66;100.00;101295.78;10425965;28;20400;-76
2023/09/16 14:11:09;;;;;;;0.00;0.00;;;;;;;31.40;100.00;101300.72;10450714;28;20041;-75
2023/09/16 14:16:11;;;;;;;0.38;0.13;;;;;;;31.88;100.00;101306.91;10421870;28;20041;-76
2023/09/16 14:21:13;;;;;;;0.35;0.25;;;;;;;31.37;100.00;101303.56;10445560;28;20037;-76
2023/09/16 14:26:14;;;;;;;0.10;0.10;;;;;;;31.30;100.00;101298.59;10432720;28;20041;-76
2023/09/16 14:31:17;;;;;;;0.05;0.05;;;;;;;31.25;100.00;101300.63;10454640;28;20044;-75
2023/09/16 14:36:18;;;;;;;0.15;0.15;;;;;;;31.35;100.00;101300.13;10444998;28;20042;-76
2023/09/16 14:41:22;;;;;;;0.20;0.20;;;;;;;31.77;100.00;101306.66;10458262;28;20059;-76
2023/09/16 14:46:23;;;;;;;0.20;0.20;;;;;;;31.27;100.00;101304.09;10431380;28;20460;-76
2023/09/16 14:51:27;;;;;;;0.00;0.00;;;;;;;31.59;100.00;101308.53;10454422;28;20411;-75
2023/09/16 14:56:29;;;;;;;0.30;0.17;;;;;;;31.43;100.00;101311.22;10464547;28;20072;-76
2023/09/16 15:01:31;;;;;;;1.25;0.52;;;;;;;31.64;100.00;101315.34;10437230;28;20056;-75
2023/09/16 15:06:33;;;;;;;0.30;0.20;;;;;;;30.84;100.00;101303.75;10461121;28;20056;-75
2023/09/16 15:11:34;;;;;;;0.40;0.38;;;;;;;31.09;100.00;101294.47;10433868;28;20404;-76
2023/09/16 15:16:36;;;;;;;0.55;0.15;;;;;;;31.68;100.00;101300.06;10463826;28;20044;-75
2023/09/16 15:21:38;;;;;;;0.10;0.10;;;;;;;30.72;100.00;101307.06;10441753;28;20048;-76
2023/09/16 15:26:39;;;;;;;0.10;0.10;;;;;;;30.91;100.00;101301.59;10462630;28;20396;-75
2023/09/16 15:31:41;;;;;;;0.00;0.00;;;;;;;29.66;100.00;101304.31;10461094;28;20077;-76
2023/09/16 15:36:44;;;;;;;0.20;0.20;;;;;;;29.22;100.00;101301.94;10454304;28;20102;-76
2023/09/16 15:41:47;;;;;;;0.57;0.10;;;;;;;29.94;100.00;101299.44;10457969;28;20041;-76
2023/09/16 15:46:49;;;;;;;0.10;0.00;;;;;;;29.52;100.00;101298.78;10457335;28;20128;-76
2023/09/16 15:51:51;;;;;;;0.30;0.17;;;;;;;29.53;100.00;101290.75;10447461;28;20119;-76
2023/09/16 15:56:52;;;;;;;0.30;0.30;;;;;;;30.48;100.00;101300.25;10440048;28;20044;-75
2023/09/16 16:01:54;;;;;;;0.10;0.10;;;;;;;30.18;100.00;101297.38;10441922;28;20444;-75
2023/09/16 16:06:56;;;;;;;0.20;0.20;;;;;;;30.00;100.00;101292.03;10425867;28;20492;-76
2023/09/16 16:11:58;;;;;;;0.10;0.10;;;;;;;29.48;100.00;101292.78;10471843;28;20041;-75
2023/09/16 16:17:00;;;;;;;0.00;0.00;;;;;;;30.15;100.00;101308.13;10457996;28;20037;-75
2023/09/16 16:22:22;;;;;;;0.00;0.00;;;;;;;30.49;100.00;101301.13;10447724;28;20098;-75
2023/09/16 16:27:24;;;;;;;0.00;0.00;;;;;;;30.34;100.00;101314.25;10459088;28;20060;-75
2023/09/16 16:32:25;;;;;;;0.00;0.00;;;;;;;30.32;100.00;101310.81;10457442;28;20059;-76
2023/09/16 16:37:27;;;;;;;0.68;0.15;;;;;;;30.23;100.00;101312.13;10457387;28;20064;-76
2023/09/16 16:42:28;;;;;;;0.20;0.15;;;;;;;29.61;100.00;101308.94;10440514;28;20144;-76
2023/09/16 16:47:30;;;;;;;0.00;0.00;;;;;;;29.67;100.00;101321.94;10440325;28;20049;-75
2023/09/16 16:52:32;;;;;;;0.00;0.00;;;;;;;29.57;100.00;101328.63;10443976;28;20458;-75
2023/09/16 16:57:33;;;;;;;0.13;0.13;;;;;;;29.40;100.00;101317.00;10455422;28;20136;-75
2023/09/16 17:02:35;;;;;;;0.20;0.20;;;;;;;29.54;100.00;101326.09;10454797;28;20052;-75
2023/09/16 17:07:37;;;;;;;0.40;0.30;;;;;;;29.47;100.00;101312.28;10434646;28;20047;-76
2023/09/16 17:12:39;;;;;;;0.10;0.10;;;;;;;29.24;100.00;101323.91;10457506;28;20068;-75
2023/09/16 17:17:41;;;;;;;0.10;0.10;;;;;;;29.09;100.00;101323.69;10456063;28;20256;-75
2023/09/16 17:22:43;;;;;;;0.17;0.15;;;;;;;28.89;100.00;101321.09;10452437;28;20040;-75
2023/09/16 17:27:45;;;;;;;0.22;0.03;;;;;;;28.02;100.00;101320.28;10437090;28;20079;-75
2023/09/16 17:32:46;;;;;;;0.00;0.00;;;;;;;27.99;100.00;101316.88;10455249;28;20033;-76
2023/09/16 17:37:48;;;;;;;0.00;0.00;;;;;;;28.05;100.00;101313.97;10449853;28;20039;-75
2023/09/16 17:42:50;;;;;;;0.28;0.13;;;;;;;27.49;100.00;101326.78;10438874;28;20053;-76
2023/09/16 17:47:52;;;;;;;0.00;0.00;;;;;;;26.46;100.00;101333.97;10437297;28;20049;-75
2023/09/16 17:52:53;;;;;;;0.10;0.10;;;;;;;26.36;100.00;101343.09;10449359;28;20060;-75
2023/09/16 17:57:55;;;;;;;1.45;0.38;;;;;;;26.47;100.00;101340.97;10437959;28;20048;-75
2023/09/16 18:02:57;;;;;;;0.00;0.00;;;;;;;26.56;100.00;101345.06;10448928;28;20051;-75
2023/09/16 18:07:58;;;;;;;0.30;0.10;;;;;;;25.97;100.00;101342.53;10455059;28;20041;-75
2023/09/16 18:13:00;;;;;;;0.00;0.00;;;;;;;25.59;100.00;101346.38;10453397;28;20654;-75
2023/09/16 18:18:03;;;;;;;0.25;0.20;;;;;;;25.86;100.00;101349.94;10437535;28;20056;-74
2023/09/16 18:23:06;;;;;;;0.20;0.10;;;;;;;25.73;100.00;101360.00;10454912;28;20056;-75
2023/09/16 18:28:08;;;;;;;0.20;0.20;;;;;;;25.65;100.00;101362.88;10437204;28;20045;-75
2023/09/16 18:33:10;;;;;;;0.15;0.15;;;;;;;25.40;100.00;101367.16;10435487;28;20045;-75
2023/09/16 18:38:13;;;;;;;0.20;0.20;;;;;;;25.59;100.00;101370.97;10453122;28;20489;-74
2023/09/16 18:43:22;;;;;;;0.38;0.30;;;;;;;25.55;100.00;101371.09;10446732;28;20103;-75
2023/09/16 18:48:24;;;;;;;0.05;0.05;;;;;;;25.51;100.00;101378.25;10436369;28;20068;-75
2023/09/16 18:53:26;;;;;;;0.45;0.25;;;;;;;25.46;100.00;101382.78;10453344;28;20044;-75
2023/09/16 18:58:29;;;;;;;0.68;0.40;;;;;;;25.39;100.00;101391.78;10452051;28;20127;-75
2023/09/16 19:03:31;;;;;;;0.30;0.20;;;;;;;25.62;100.00;101394.63;10439944;28;20057;-75
2023/09/16 19:08:33;;;;;;;0.05;0.05;;;;;;;25.55;100.00;101398.38;10452357;28;20045;-75
2023/09/16 19:13:34;;;;;;;0.00;0.00;;;;;;;26.16;100.00;101402.72;10453012;28;20484;-75
2023/09/16 19:18:36;;;;;;;0.20;0.20;;;;;;;26.55;100.00;101402.31;10444790;28;20462;-74
2023/09/16 19:23:40;;;;;;;0.20;0.20;;;;;;;26.62;100.00;101405.63;10443539;28;20048;-75
2023/09/16 19:28:41;;;;;;;0.55;0.10;;;;;;;25.77;100.00;101403.00;10460751;28;20061;-75
2023/09/16 19:33:43;;;;;;;0.10;0.10;;;;;;;25.37;100.00;101419.94;10443664;28;20106;-75
2023/09/16 19:38:45;;;;;;;0.32;0.32;;;;;;;26.21;100.00;101418.44;10439540;28;20045;-75
2023/09/16 19:43:46;;;;;;;0.10;0.10;;;;;;;25.55;100.00;101418.59;10460135;28;20049;-75
2023/09/16 19:48:48;;;;;;;0.60;0.13;;;;;;;25.25;100.00;101411.47;10434108;28;20049;-75
2023/09/16 19:53:50;;;;;;;0.15;0.15;;;;;;;25.30;100.00;101406.94;10459942;28;20037;-75
2023/09/16 19:58:52;;;;;;;1.02;0.45;;;;;;;25.33;100.00;101400.72;10453947;28;20036;-75
2023/09/16 20:03:54;;;;;;;0.40;0.17;;;;;;;25.56;100.00;101412.41;10459500;28;20048;-74
2023/09/16 20:08:58;;;;;;;0.55;0.38;;;;;;;25.48;100.00;101412.66;10456280;28;20052;-75
2023/09/16 20:13:59;;;;;;;0.08;0.08;;;;;;;25.09;100.00;101411.06;10458413;28;20063;-75
2023/09/16 20:19:01;;;;;;;0.22;0.22;;;;;;;24.89;100.00;101408.94;10440896;28;20047;-78
2023/09/16 20:24:03;;;;;;;0.35;0.35;;;;;;;25.03;100.00;101416.47;10439761;28;20103;-74
2023/09/16 20:29:05;;;;;;;0.60;0.47;;;;;;;24.79;100.00;101410.94;10455591;28;20496;-77
2023/09/16 20:34:06;;;;;;;0.20;0.20;;;;;;;24.69;100.00;101402.38;10457960;28;20056;-78
2023/09/16 20:39:14;;;;;;;0.73;0.55;;;;;;;25.48;100.00;101408.22;10442236;28;20139;-75
2023/09/16 20:44:15;;;;;;;0.60;0.28;;;;;;;24.83;100.00;101422.28;10457686;28;20392;-78
2023/09/16 20:49:17;;;;;;;0.38;0.38;;;;;;;25.11;100.00;101418.91;10440860;28;20044;-77
2023/09/16 20:54:19;;;;;;;0.30;0.25;;;;;;;24.63;100.00;101423.59;10438924;28;20435;-77
2023/09/16 20:59:22;;;;;;;0.32;0.30;;;;;;;24.98;100.00;101424.47;10457107;28;20048;-77
2023/09/16 21:04:23;;;;;;;0.40;0.40;;;;;;;24.89;100.00;101414.22;10452074;28;20057;-77
2023/09/16 21:09:25;;;;;;;0.40;0.40;;;;;;;24.68;100.00;101415.59;10439604;28;20677;-77
2023/09/16 21:14:27;;;;;;;0.35;0.30;;;;;;;24.30;100.00;101407.72;10450665;28;20053;-78
2023/09/16 21:19:28;;;;;;;0.20;0.20;;;;;;;24.35;100.00;101399.72;10438688;28;20049;-77
2023/09/16 21:24:30;;;;;;;0.20;0.10;;;;;;;24.17;100.00;101398.34;10439157;28;20052;-77
2023/09/16 21:29:32;;;;;;;0.63;0.45;;;;;;;23.94;100.00;101391.84;10412831;28;20041;-77
2023/09/16 21:34:33;;;;;;;0.38;0.25;;;;;;;24.44;100.00;101386.31;10447389;28;20056;-78
2023/09/16 21:39:37;;;;;;;0.10;0.10;;;;;;;24.47;100.00;101393.25;10448896;28;20041;-77
2023/09/16 21:44:39;;;;;;;0.40;0.30;;;;;;;24.06;100.00;101391.59;10454828;28;20055;-78
2023/09/16 21:49:41;;;;;;;1.23;0.80;;;;;;;24.22;100.00;101385.97;10449722;28;20059;-77
2023/09/16 21:54:42;;;;;;;1.85;0.63;;;;;;;23.96;100.00;101394.47;10447835;28;20052;-77
2023/09/16 21:59:46;;;;;;;0.77;0.47;;;;;;;24.45;100.00;101395.09;10431431;28;20036;-77
2023/09/16 22:04:48;;;;;;;1.08;0.30;;;;;;;23.97;100.00;101399.69;10438393;28;20037;-78
2023/09/16 22:09:49;;;;;;;0.22;0.22;;;;;;;23.88;100.00;101402.47;10447006;28;20067;-77
2023/09/16 22:14:51;;;;;;;0.63;0.45;;;;;;;24.30;100.00;101410.34;10446082;28;20036;-77
2023/09/16 22:19:52;;;;;;;0.20;0.20;;;;;;;23.84;100.00;101412.19;10448203;28;20045;-77
2023/09/16 22:24:54;;;;;;;0.30;0.20;;;;;;;23.47;100.00;101412.97;10448153;28;20415;-77
2023/09/16 22:29:56;;;;;;;0.30;0.30;;;;;;;23.25;100.00;101396.75;10452907;28;20045;-78
2023/09/16 22:34:59;;;;;;;0.10;0.10;;;;;;;23.20;100.00;101394.22;10429772;28;20132;-77
2023/09/16 22:40:00;;;;;;;0.20;0.10;;;;;;;22.94;100.00;101386.78;10449238;28;20151;-78
2023/09/16 22:45:03;;;;;;;0.20;0.20;;;;;;;22.76;100.00;101378.34;10453103;28;20063;-77
2023/09/16 22:56:43;;;;;;;0.43;0.40;;;;;;;22.70;100.00;101378.44;10374585;22;20046;-77
2023/09/16 23:01:45;;;;;;;0.15;0.15;;;;;;;22.73;100.00;101373.16;10371638;28;20054;-77